sensor_id;sensor_type;location;lat;lon;timestamp;P1;durP1;ratioP1;P2;durP2;ratioP2
24206;SDS011;12351;52.284;9.160;2023-01-09T00:01:22;2.35;;;1.70;;
24206;SDS011;12351;52.284;9.160;2023-01-09T00:04:11;2.10;;;1.90;;
24206;SDS011;12351;52.284;9.160;2023-01-09T00:07:01;2.20;;;2.00;;
24206;SDS011;12351;52.284;9.160;2023-01-09T00:09:50;2.85;;;1.80;;
24206;SDS011;12351;52.284;9.160;2023-01-09T00:12:37;2.80;;;1.77;;
24206;SDS011;12351;52.284;9.160;2023-01-09T00:15:25;3.90;;;1.90;;
24206;SDS011;12351;52.284;9.160;2023-01-09T00:18:15;3.20;;;1.75;;
24206;SDS011;12351;52.284;9.160;2023-01-09T00:21:02;2.50;;;1.90;;
24206;SDS011;12351;52.284;9.160;2023-01-09T00:23:52;2.62;;;2.08;;
24206;SDS011;12351;52.284;9.160;2023-01-09T00:26:39;3.30;;;1.75;;
24206;SDS011;12351;52.284;9.160;2023-01-09T00:29:26;5.35;;;1.60;;
24206;SDS011;12351;52.284;9.160;2023-01-09T00:32:14;4.12;;;1.85;;
24206;SDS011;12351;52.284;9.160;2023-01-09T00:35:03;1.60;;;1.50;;
24206;SDS011;12351;52.284;9.160;2023-01-09T00:37:50;1.77;;;1.57;;
24206;SDS011;12351;52.284;9.160;2023-01-09T00:40:38;1.85;;;1.60;;
24206;SDS011;12351;52.284;9.160;2023-01-09T00:43:27;1.62;;;1.50;;
24206;SDS011;12351;52.284;9.160;2023-01-09T00:46:18;1.98;;;1.30;;
24206;SDS011;12351;52.284;9.160;2023-01-09T00:49:07;2.42;;;1.50;;
24206;SDS011;12351;52.284;9.160;2023-01-09T00:51:56;2.22;;;1.22;;
24206;SDS011;12351;52.284;9.160;2023-01-09T00:54:44;2.42;;;1.20;;
24206;SDS011;12351;52.284;9.160;2023-01-09T00:57:33;1.85;;;1.30;;
24206;SDS011;12351;52.284;9.160;2023-01-09T01:00:22;1.60;;;1.10;;
24206;SDS011;12351;52.284;9.160;2023-01-09T01:03:09;2.15;;;1.10;;
24206;SDS011;12351;52.284;9.160;2023-01-09T01:05:58;3.10;;;1.07;;
24206;SDS011;12351;52.284;9.160;2023-01-09T01:08:49;1.80;;;1.07;;
24206;SDS011;12351;52.284;9.160;2023-01-09T01:11:40;1.62;;;1.15;;
24206;SDS011;12351;52.284;9.160;2023-01-09T01:14:28;2.62;;;1.00;;
24206;SDS011;12351;52.284;9.160;2023-01-09T01:17:16;2.77;;;0.90;;
24206;SDS011;12351;52.284;9.160;2023-01-09T01:20:09;1.57;;;1.20;;
24206;SDS011;12351;52.284;9.160;2023-01-09T01:22:57;2.30;;;1.00;;
24206;SDS011;12351;52.284;9.160;2023-01-09T01:25:45;3.67;;;1.05;;
24206;SDS011;12351;52.284;9.160;2023-01-09T01:28:33;1.57;;;1.10;;
24206;SDS011;12351;52.284;9.160;2023-01-09T01:31:22;1.67;;;1.02;;
24206;SDS011;12351;52.284;9.160;2023-01-09T01:34:09;1.52;;;1.10;;
24206;SDS011;12351;52.284;9.160;2023-01-09T01:36:58;2.72;;;0.90;;
24206;SDS011;12351;52.284;9.160;2023-01-09T01:39:46;1.52;;;1.15;;
24206;SDS011;12351;52.284;9.160;2023-01-09T01:42:36;1.70;;;1.00;;
24206;SDS011;12351;52.284;9.160;2023-01-09T01:45:26;2.08;;;1.07;;
24206;SDS011;12351;52.284;9.160;2023-01-09T01:48:17;3.20;;;1.00;;
24206;SDS011;12351;52.284;9.160;2023-01-09T01:51:11;2.22;;;1.15;;
24206;SDS011;12351;52.284;9.160;2023-01-09T01:54:04;1.32;;;1.07;;
24206;SDS011;12351;52.284;9.160;2023-01-09T01:56:54;1.62;;;1.00;;
24206;SDS011;12351;52.284;9.160;2023-01-09T01:59:45;1.47;;;1.12;;
24206;SDS011;12351;52.284;9.160;2023-01-09T02:02:35;1.60;;;0.98;;
24206;SDS011;12351;52.284;9.160;2023-01-09T02:05:27;2.58;;;0.95;;
24206;SDS011;12351;52.284;9.160;2023-01-09T02:08:18;1.87;;;0.82;;
24206;SDS011;12351;52.284;9.160;2023-01-09T02:11:07;1.85;;;1.00;;
24206;SDS011;12351;52.284;9.160;2023-01-09T02:14:00;3.58;;;1.17;;
24206;SDS011;12351;52.284;9.160;2023-01-09T02:16:54;1.90;;;1.05;;
24206;SDS011;12351;52.284;9.160;2023-01-09T02:42:24;3.80;;;1.12;;
24206;SDS011;12351;52.284;9.160;2023-01-09T02:45:11;2.60;;;1.00;;
24206;SDS011;12351;52.284;9.160;2023-01-09T02:47:59;1.80;;;0.98;;
24206;SDS011;12351;52.284;9.160;2023-01-09T02:59:11;0.82;;;0.70;;
24206;SDS011;12351;52.284;9.160;2023-01-09T03:07:27;1.33;;;0.80;;
24206;SDS011;12351;52.284;9.160;2023-01-09T03:10:17;0.78;;;0.50;;
24206;SDS011;12351;52.284;9.160;2023-01-09T03:13:04;0.28;;;0.28;;
24206;SDS011;12351;52.284;9.160;2023-01-09T03:15:56;1.85;;;0.30;;
24206;SDS011;12351;52.284;9.160;2023-01-09T03:18:46;1.17;;;0.30;;
24206;SDS011;12351;52.284;9.160;2023-01-09T03:21:36;0.70;;;0.30;;
24206;SDS011;12351;52.284;9.160;2023-01-09T03:24:24;0.50;;;0.20;;
24206;SDS011;12351;52.284;9.160;2023-01-09T03:27:14;1.17;;;0.20;;
24206;SDS011;12351;52.284;9.160;2023-01-09T03:30:02;0.20;;;0.20;;
24206;SDS011;12351;52.284;9.160;2023-01-09T03:32:52;0.20;;;0.20;;
24206;SDS011;12351;52.284;9.160;2023-01-09T03:35:44;0.57;;;0.30;;
24206;SDS011;12351;52.284;9.160;2023-01-09T03:38:32;0.20;;;0.20;;
24206;SDS011;12351;52.284;9.160;2023-01-09T03:41:22;0.20;;;0.20;;
24206;SDS011;12351;52.284;9.160;2023-01-09T03:44:13;0.20;;;0.20;;
24206;SDS011;12351;52.284;9.160;2023-01-09T03:47:00;0.28;;;0.28;;
24206;SDS011;12351;52.284;9.160;2023-01-09T03:49:48;0.98;;;0.20;;
24206;SDS011;12351;52.284;9.160;2023-01-09T03:52:36;0.45;;;0.20;;
24206;SDS011;12351;52.284;9.160;2023-01-09T03:55:25;0.30;;;0.15;;
24206;SDS011;12351;52.284;9.160;2023-01-09T03:58:16;0.10;;;0.10;;
24206;SDS011;12351;52.284;9.160;2023-01-09T04:01:04;0.13;;;0.10;;
24206;SDS011;12351;52.284;9.160;2023-01-09T04:03:54;0.57;;;0.10;;
24206;SDS011;12351;52.284;9.160;2023-01-09T04:06:42;0.10;;;0.10;;
24206;SDS011;12351;52.284;9.160;2023-01-09T04:09:31;0.57;;;0.20;;
24206;SDS011;12351;52.284;9.160;2023-01-09T04:12:20;0.40;;;0.20;;
24206;SDS011;12351;52.284;9.160;2023-01-09T04:15:10;0.20;;;0.10;;
24206;SDS011;12351;52.284;9.160;2023-01-09T04:17:58;0.20;;;0.20;;
24206;SDS011;12351;52.284;9.160;2023-01-09T04:20:47;0.70;;;0.30;;
24206;SDS011;12351;52.284;9.160;2023-01-09T04:23:35;0.33;;;0.20;;
24206;SDS011;12351;52.284;9.160;2023-01-09T04:26:23;0.30;;;0.30;;
24206;SDS011;12351;52.284;9.160;2023-01-09T04:29:12;0.68;;;0.40;;
24206;SDS011;12351;52.284;9.160;2023-01-09T04:32:01;0.30;;;0.30;;
24206;SDS011;12351;52.284;9.160;2023-01-09T04:34:51;0.75;;;0.62;;
24206;SDS011;12351;52.284;9.160;2023-01-09T04:37:44;0.80;;;0.60;;
24206;SDS011;12351;52.284;9.160;2023-01-09T04:40:33;1.57;;;0.75;;
24206;SDS011;12351;52.284;9.160;2023-01-09T04:43:26;1.82;;;0.80;;
24206;SDS011;12351;52.284;9.160;2023-01-09T04:46:14;0.72;;;0.72;;
24206;SDS011;12351;52.284;9.160;2023-01-09T04:49:07;1.22;;;1.10;;
24206;SDS011;12351;52.284;9.160;2023-01-09T04:51:57;2.20;;;1.20;;
24206;SDS011;12351;52.284;9.160;2023-01-09T04:54:45;1.32;;;1.22;;
24206;SDS011;12351;52.284;9.160;2023-01-09T04:57:38;1.67;;;1.20;;
24206;SDS011;12351;52.284;9.160;2023-01-09T05:00:29;2.47;;;1.40;;
24206;SDS011;12351;52.284;9.160;2023-01-09T05:03:17;1.32;;;1.22;;
24206;SDS011;12351;52.284;9.160;2023-01-09T05:06:06;1.55;;;1.45;;
24206;SDS011;12351;52.284;9.160;2023-01-09T05:08:57;2.42;;;1.60;;
24206;SDS011;12351;52.284;9.160;2023-01-09T05:11:50;1.67;;;1.57;;
24206;SDS011;12351;52.284;9.160;2023-01-09T05:14:41;1.67;;;1.57;;
24206;SDS011;12351;52.284;9.160;2023-01-09T05:17:30;2.17;;;1.80;;
24206;SDS011;12351;52.284;9.160;2023-01-09T05:20:21;3.15;;;1.80;;
24206;SDS011;12351;52.284;9.160;2023-01-09T05:23:09;3.10;;;1.82;;
24206;SDS011;12351;52.284;9.160;2023-01-09T05:26:00;2.37;;;2.02;;
24206;SDS011;12351;52.284;9.160;2023-01-09T05:28:50;3.42;;;2.02;;
24206;SDS011;12351;52.284;9.160;2023-01-09T05:31:42;5.58;;;2.55;;
24206;SDS011;12351;52.284;9.160;2023-01-09T05:34:30;2.50;;;2.30;;
24206;SDS011;12351;52.284;9.160;2023-01-09T05:37:19;2.85;;;2.60;;
24206;SDS011;12351;52.284;9.160;2023-01-09T05:40:08;2.92;;;2.70;;
24206;SDS011;12351;52.284;9.160;2023-01-09T05:42:57;4.92;;;2.67;;
24206;SDS011;12351;52.284;9.160;2023-01-09T05:45:46;6.17;;;3.22;;
24206;SDS011;12351;52.284;9.160;2023-01-09T05:48:38;4.12;;;3.37;;
24206;SDS011;12351;52.284;9.160;2023-01-09T05:51:30;5.53;;;4.07;;
24206;SDS011;12351;52.284;9.160;2023-01-09T05:54:19;6.12;;;4.00;;
24206;SDS011;12351;52.284;9.160;2023-01-09T05:57:10;7.47;;;4.30;;
24206;SDS011;12351;52.284;9.160;2023-01-09T05:59:58;5.12;;;3.95;;
24206;SDS011;12351;52.284;9.160;2023-01-09T06:02:50;6.15;;;4.30;;
24206;SDS011;12351;52.284;9.160;2023-01-09T06:05:40;5.05;;;4.17;;
24206;SDS011;12351;52.284;9.160;2023-01-09T06:08:33;8.80;;;4.42;;
24206;SDS011;12351;52.284;9.160;2023-01-09T06:11:21;6.58;;;4.17;;
24206;SDS011;12351;52.284;9.160;2023-01-09T06:14:12;6.83;;;4.10;;
24206;SDS011;12351;52.284;9.160;2023-01-09T06:17:05;3.98;;;3.58;;
24206;SDS011;12351;52.284;9.160;2023-01-09T06:19:54;5.80;;;3.50;;
24206;SDS011;12351;52.284;9.160;2023-01-09T06:22:43;5.03;;;3.30;;
24206;SDS011;12351;52.284;9.160;2023-01-09T06:25:36;7.80;;;3.67;;
24206;SDS011;12351;52.284;9.160;2023-01-09T06:28:25;9.48;;;3.83;;
24206;SDS011;12351;52.284;9.160;2023-01-09T06:31:14;6.83;;;4.00;;
24206;SDS011;12351;52.284;9.160;2023-01-09T06:34:03;7.97;;;4.10;;
24206;SDS011;12351;52.284;9.160;2023-01-09T06:36:50;6.92;;;4.50;;
24206;SDS011;12351;52.284;9.160;2023-01-09T06:39:37;6.30;;;4.05;;
24206;SDS011;12351;52.284;9.160;2023-01-09T06:42:25;6.22;;;4.40;;
24206;SDS011;12351;52.284;9.160;2023-01-09T06:45:13;9.08;;;4.65;;
24206;SDS011;12351;52.284;9.160;2023-01-09T06:48:02;8.53;;;4.60;;
24206;SDS011;12351;52.284;9.160;2023-01-09T06:50:53;10.68;;;5.45;;
24206;SDS011;12351;52.284;9.160;2023-01-09T06:53:44;8.53;;;5.50;;
24206;SDS011;12351;52.284;9.160;2023-01-09T06:56:33;10.00;;;5.33;;
24206;SDS011;12351;52.284;9.160;2023-01-09T06:59:22;11.53;;;5.42;;
24206;SDS011;12351;52.284;9.160;2023-01-09T07:05:00;11.73;;;5.90;;
24206;SDS011;12351;52.284;9.160;2023-01-09T07:07:50;9.93;;;5.75;;
24206;SDS011;12351;52.284;9.160;2023-01-09T07:10:37;8.00;;;6.12;;
24206;SDS011;12351;52.284;9.160;2023-01-09T07:13:27;9.80;;;6.50;;
24206;SDS011;12351;52.284;9.160;2023-01-09T07:16:16;14.05;;;7.10;;
24206;SDS011;12351;52.284;9.160;2023-01-09T07:19:03;12.60;;;7.50;;
24206;SDS011;12351;52.284;9.160;2023-01-09T07:21:51;9.55;;;7.05;;
24206;SDS011;12351;52.284;9.160;2023-01-09T07:24:38;10.78;;;6.90;;
24206;SDS011;12351;52.284;9.160;2023-01-09T07:27:28;10.50;;;7.28;;
24206;SDS011;12351;52.284;9.160;2023-01-09T07:30:17;14.95;;;7.42;;
24206;SDS011;12351;52.284;9.160;2023-01-09T07:33:05;12.35;;;7.58;;
24206;SDS011;12351;52.284;9.160;2023-01-09T07:35:55;13.60;;;8.33;;
24206;SDS011;12351;52.284;9.160;2023-01-09T07:38:43;10.45;;;7.58;;
24206;SDS011;12351;52.284;9.160;2023-01-09T07:41:35;13.70;;;8.25;;
24206;SDS011;12351;52.284;9.160;2023-01-09T07:44:22;13.93;;;8.40;;
24206;SDS011;12351;52.284;9.160;2023-01-09T07:47:10;13.45;;;8.38;;
24206;SDS011;12351;52.284;9.160;2023-01-09T07:50:00;13.45;;;8.23;;
24206;SDS011;12351;52.284;9.160;2023-01-09T07:52:53;12.10;;;7.75;;
24206;SDS011;12351;52.284;9.160;2023-01-09T07:55:44;13.53;;;7.33;;
24206;SDS011;12351;52.284;9.160;2023-01-09T07:58:35;12.25;;;7.72;;
24206;SDS011;12351;52.284;9.160;2023-01-09T08:01:25;11.45;;;6.83;;
24206;SDS011;12351;52.284;9.160;2023-01-09T08:04:13;16.10;;;7.65;;
24206;SDS011;12351;52.284;9.160;2023-01-09T08:07:01;14.30;;;6.75;;
24206;SDS011;12351;52.284;9.160;2023-01-09T08:09:52;10.08;;;6.17;;
24206;SDS011;12351;52.284;9.160;2023-01-09T08:12:42;12.95;;;6.12;;
24206;SDS011;12351;52.284;9.160;2023-01-09T08:15:32;11.78;;;5.03;;
24206;SDS011;12351;52.284;9.160;2023-01-09T08:18:20;9.65;;;5.50;;
24206;SDS011;12351;52.284;9.160;2023-01-09T08:21:08;10.28;;;4.20;;
24206;SDS011;12351;52.284;9.160;2023-01-09T08:23:57;6.20;;;3.67;;
24206;SDS011;12351;52.284;9.160;2023-01-09T08:26:45;6.65;;;3.45;;
24206;SDS011;12351;52.284;9.160;2023-01-09T08:29:33;7.30;;;3.10;;
24206;SDS011;12351;52.284;9.160;2023-01-09T08:32:21;5.25;;;2.70;;
24206;SDS011;12351;52.284;9.160;2023-01-09T08:35:10;8.50;;;2.30;;
24206;SDS011;12351;52.284;9.160;2023-01-09T08:37:59;8.15;;;2.17;;
24206;SDS011;12351;52.284;9.160;2023-01-09T08:40:48;6.22;;;1.72;;
24206;SDS011;12351;52.284;9.160;2023-01-09T08:43:40;3.80;;;1.55;;
24206;SDS011;12351;52.284;9.160;2023-01-09T08:46:30;5.60;;;1.67;;
24206;SDS011;12351;52.284;9.160;2023-01-09T08:49:19;5.28;;;1.77;;
24206;SDS011;12351;52.284;9.160;2023-01-09T08:52:06;10.10;;;1.70;;
24206;SDS011;12351;52.284;9.160;2023-01-09T08:54:54;7.08;;;1.60;;
24206;SDS011;12351;52.284;9.160;2023-01-09T09:00:35;7.95;;;1.80;;
24206;SDS011;12351;52.284;9.160;2023-01-09T09:03:25;9.38;;;1.67;;
24206;SDS011;12351;52.284;9.160;2023-01-09T09:06:14;7.75;;;2.05;;
24206;SDS011;12351;52.284;9.160;2023-01-09T09:09:01;5.47;;;2.30;;
24206;SDS011;12351;52.284;9.160;2023-01-09T09:11:51;6.15;;;1.72;;
24206;SDS011;12351;52.284;9.160;2023-01-09T09:14:40;4.70;;;1.70;;
24206;SDS011;12351;52.284;9.160;2023-01-09T09:17:28;3.98;;;1.55;;
24206;SDS011;12351;52.284;9.160;2023-01-09T09:20:17;6.45;;;1.90;;
24206;SDS011;12351;52.284;9.160;2023-01-09T09:23:06;4.15;;;1.57;;
24206;SDS011;12351;52.284;9.160;2023-01-09T09:25:54;5.47;;;1.62;;
24206;SDS011;12351;52.284;9.160;2023-01-09T09:28:42;6.15;;;1.65;;
24206;SDS011;12351;52.284;9.160;2023-01-09T09:31:32;5.50;;;1.35;;
24206;SDS011;12351;52.284;9.160;2023-01-09T09:34:21;4.62;;;1.72;;
24206;SDS011;12351;52.284;9.160;2023-01-09T09:37:12;4.05;;;1.52;;
24206;SDS011;12351;52.284;9.160;2023-01-09T09:40:01;4.47;;;1.37;;
24206;SDS011;12351;52.284;9.160;2023-01-09T09:48:38;4.70;;;1.27;;
24206;SDS011;12351;52.284;9.160;2023-01-09T09:51:31;2.55;;;0.98;;
24206;SDS011;12351;52.284;9.160;2023-01-09T09:57:09;3.58;;;1.10;;
24206;SDS011;12351;52.284;9.160;2023-01-09T09:59:57;4.25;;;1.00;;
24206;SDS011;12351;52.284;9.160;2023-01-09T10:05:39;1.98;;;0.80;;
24206;SDS011;12351;52.284;9.160;2023-01-09T10:11:22;2.33;;;0.90;;
24206;SDS011;12351;52.284;9.160;2023-01-09T10:14:10;5.15;;;1.10;;
24206;SDS011;12351;52.284;9.160;2023-01-09T10:22:47;6.37;;;1.10;;
24206;SDS011;12351;52.284;9.160;2023-01-09T10:42:46;4.10;;;0.88;;
24206;SDS011;12351;52.284;9.160;2023-01-09T10:45:37;4.72;;;0.70;;
24206;SDS011;12351;52.284;9.160;2023-01-09T10:48:26;2.75;;;0.70;;
24206;SDS011;12351;52.284;9.160;2023-01-09T10:51:17;1.72;;;0.80;;
24206;SDS011;12351;52.284;9.160;2023-01-09T10:54:10;3.20;;;0.70;;
24206;SDS011;12351;52.284;9.160;2023-01-09T10:57:00;4.62;;;0.70;;
24206;SDS011;12351;52.284;9.160;2023-01-09T10:59:47;1.87;;;0.68;;
24206;SDS011;12351;52.284;9.160;2023-01-09T11:02:35;5.95;;;0.93;;
24206;SDS011;12351;52.284;9.160;2023-01-09T11:05:25;2.27;;;0.65;;
24206;SDS011;12351;52.284;9.160;2023-01-09T11:11:03;3.45;;;0.70;;
24206;SDS011;12351;52.284;9.160;2023-01-09T11:14:00;3.52;;;0.80;;
24206;SDS011;12351;52.284;9.160;2023-01-09T11:16:49;2.30;;;0.82;;
24206;SDS011;12351;52.284;9.160;2023-01-09T11:19:33;4.03;;;0.72;;
24206;SDS011;12351;52.284;9.160;2023-01-09T11:22:20;5.92;;;0.90;;
24206;SDS011;12351;52.284;9.160;2023-01-09T11:25:10;4.08;;;0.75;;
24206;SDS011;12351;52.284;9.160;2023-01-09T11:30:50;3.37;;;0.72;;
24206;SDS011;12351;52.284;9.160;2023-01-09T11:33:39;4.78;;;0.80;;
24206;SDS011;12351;52.284;9.160;2023-01-09T11:36:30;3.08;;;1.00;;
24206;SDS011;12351;52.284;9.160;2023-01-09T11:39:23;1.50;;;0.70;;
24206;SDS011;12351;52.284;9.160;2023-01-09T11:45:02;2.85;;;0.70;;
24206;SDS011;12351;52.284;9.160;2023-01-09T11:47:49;5.20;;;0.80;;
24206;SDS011;12351;52.284;9.160;2023-01-09T11:50:38;2.92;;;0.80;;
24206;SDS011;12351;52.284;9.160;2023-01-09T11:53:27;4.65;;;0.72;;
24206;SDS011;12351;52.284;9.160;2023-01-09T11:56:14;2.58;;;0.93;;
24206;SDS011;12351;52.284;9.160;2023-01-09T12:04:48;2.80;;;0.80;;
24206;SDS011;12351;52.284;9.160;2023-01-09T12:07:40;1.98;;;0.78;;
24206;SDS011;12351;52.284;9.160;2023-01-09T12:19:06;1.00;;;0.60;;
24206;SDS011;12351;52.284;9.160;2023-01-09T12:38:54;2.65;;;0.60;;
24206;SDS011;12351;52.284;9.160;2023-01-09T12:55:53;2.55;;;0.98;;
24206;SDS011;12351;52.284;9.160;2023-01-09T12:58:42;3.72;;;0.90;;
24206;SDS011;12351;52.284;9.160;2023-01-09T13:01:31;1.42;;;0.62;;
24206;SDS011;12351;52.284;9.160;2023-01-09T13:12:53;1.60;;;0.98;;
24206;SDS011;12351;52.284;9.160;2023-01-09T13:15:44;2.92;;;1.00;;
24206;SDS011;12351;52.284;9.160;2023-01-09T13:18:36;1.92;;;0.85;;
24206;SDS011;12351;52.284;9.160;2023-01-09T13:21:25;1.85;;;0.90;;
24206;SDS011;12351;52.284;9.160;2023-01-09T13:27:05;4.83;;;1.05;;
24206;SDS011;12351;52.284;9.160;2023-01-09T13:30:00;3.50;;;0.90;;
24206;SDS011;12351;52.284;9.160;2023-01-09T13:35:45;1.70;;;1.00;;
24206;SDS011;12351;52.284;9.160;2023-01-09T13:38:26;1.35;;;0.80;;
24206;SDS011;12351;52.284;9.160;2023-01-09T13:41:17;1.37;;;0.70;;
24206;SDS011;12351;52.284;9.160;2023-01-09T13:44:18;1.80;;;0.70;;
24206;SDS011;12351;52.284;9.160;2023-01-09T13:46:57;1.37;;;0.68;;
24206;SDS011;12351;52.284;9.160;2023-01-09T13:52:30;2.30;;;0.93;;
24206;SDS011;12351;52.284;9.160;2023-01-09T14:00:46;3.02;;;0.90;;
24206;SDS011;12351;52.284;9.160;2023-01-09T14:03:36;2.90;;;1.10;;
24206;SDS011;12351;52.284;9.160;2023-01-09T14:06:25;2.58;;;1.10;;
24206;SDS011;12351;52.284;9.160;2023-01-09T14:12:04;4.03;;;1.20;;
24206;SDS011;12351;52.284;9.160;2023-01-09T14:14:54;2.77;;;1.30;;
24206;SDS011;12351;52.284;9.160;2023-01-09T14:17:43;2.92;;;1.35;;
24206;SDS011;12351;52.284;9.160;2023-01-09T14:20:36;5.40;;;1.30;;
24206;SDS011;12351;52.284;9.160;2023-01-09T14:26:14;1.67;;;1.00;;
24206;SDS011;12351;52.284;9.160;2023-01-09T14:31:50;2.50;;;1.35;;
24206;SDS011;12351;52.284;9.160;2023-01-09T14:34:38;3.22;;;1.50;;
24206;SDS011;12351;52.284;9.160;2023-01-09T14:37:28;5.50;;;2.87;;
24206;SDS011;12351;52.284;9.160;2023-01-09T14:40:19;3.05;;;1.98;;
24206;SDS011;12351;52.284;9.160;2023-01-09T14:43:11;5.83;;;1.72;;
24206;SDS011;12351;52.284;9.160;2023-01-09T14:46:01;3.87;;;1.50;;
24206;SDS011;12351;52.284;9.160;2023-01-09T14:51:41;3.22;;;1.75;;
24206;SDS011;12351;52.284;9.160;2023-01-09T14:54:32;4.12;;;1.60;;
24206;SDS011;12351;52.284;9.160;2023-01-09T14:57:23;5.20;;;1.80;;
24206;SDS011;12351;52.284;9.160;2023-01-09T15:03:02;6.22;;;2.55;;
24206;SDS011;12351;52.284;9.160;2023-01-09T15:05:50;4.67;;;2.90;;
24206;SDS011;12351;52.284;9.160;2023-01-09T15:08:39;4.70;;;2.10;;
24206;SDS011;12351;52.284;9.160;2023-01-09T15:11:29;6.97;;;1.72;;
24206;SDS011;12351;52.284;9.160;2023-01-09T15:14:24;4.53;;;1.60;;
24206;SDS011;12351;52.284;9.160;2023-01-09T15:19:59;1.62;;;1.10;;
24206;SDS011;12351;52.284;9.160;2023-01-09T15:22:52;2.55;;;0.93;;
24206;SDS011;12351;52.284;9.160;2023-01-09T15:25:40;2.98;;;1.40;;
24206;SDS011;12351;52.284;9.160;2023-01-09T15:28:32;2.45;;;0.80;;
24206;SDS011;12351;52.284;9.160;2023-01-09T15:31:21;3.75;;;1.32;;
24206;SDS011;12351;52.284;9.160;2023-01-09T15:34:14;3.55;;;1.22;;
24206;SDS011;12351;52.284;9.160;2023-01-09T15:37:00;1.42;;;0.90;;
24206;SDS011;12351;52.284;9.160;2023-01-09T15:39:49;2.12;;;1.20;;
24206;SDS011;12351;52.284;9.160;2023-01-09T15:42:38;2.10;;;1.10;;
24206;SDS011;12351;52.284;9.160;2023-01-09T15:53:48;3.70;;;1.07;;
24206;SDS011;12351;52.284;9.160;2023-01-09T15:56:39;1.82;;;1.10;;
24206;SDS011;12351;52.284;9.160;2023-01-09T15:59:27;2.77;;;1.32;;
24206;SDS011;12351;52.284;9.160;2023-01-09T16:02:17;1.65;;;1.12;;
24206;SDS011;12351;52.284;9.160;2023-01-09T16:05:08;2.65;;;1.45;;
24206;SDS011;12351;52.284;9.160;2023-01-09T16:07:58;4.40;;;1.90;;
24206;SDS011;12351;52.284;9.160;2023-01-09T16:10:50;4.03;;;1.85;;
24206;SDS011;12351;52.284;9.160;2023-01-09T16:13:41;3.37;;;1.80;;
24206;SDS011;12351;52.284;9.160;2023-01-09T16:16:30;3.85;;;2.10;;
24206;SDS011;12351;52.284;9.160;2023-01-09T16:25:02;6.65;;;3.67;;
24206;SDS011;12351;52.284;9.160;2023-01-09T16:33:36;6.10;;;3.27;;
24206;SDS011;12351;52.284;9.160;2023-01-09T16:36:26;6.80;;;3.90;;
24206;SDS011;12351;52.284;9.160;2023-01-09T16:39:14;6.08;;;3.25;;
24206;SDS011;12351;52.284;9.160;2023-01-09T16:42:07;4.42;;;2.50;;
24206;SDS011;12351;52.284;9.160;2023-01-09T16:44:57;5.20;;;2.40;;
24206;SDS011;12351;52.284;9.160;2023-01-09T16:47:45;3.55;;;2.17;;
24206;SDS011;12351;52.284;9.160;2023-01-09T16:50:35;3.37;;;2.25;;
24206;SDS011;12351;52.284;9.160;2023-01-09T16:53:24;3.55;;;2.02;;
24206;SDS011;12351;52.284;9.160;2023-01-09T16:56:18;2.83;;;1.45;;
24206;SDS011;12351;52.284;9.160;2023-01-09T17:02:01;3.83;;;1.67;;
24206;SDS011;12351;52.284;9.160;2023-01-09T17:04:49;5.37;;;2.20;;
24206;SDS011;12351;52.284;9.160;2023-01-09T17:07:40;5.35;;;2.50;;
24206;SDS011;12351;52.284;9.160;2023-01-09T17:10:28;3.33;;;2.10;;
24206;SDS011;12351;52.284;9.160;2023-01-09T17:13:17;7.45;;;2.60;;
24206;SDS011;12351;52.284;9.160;2023-01-09T17:16:08;4.62;;;3.20;;
24206;SDS011;12351;52.284;9.160;2023-01-09T17:18:57;4.67;;;2.40;;
24206;SDS011;12351;52.284;9.160;2023-01-09T17:21:45;5.05;;;2.60;;
24206;SDS011;12351;52.284;9.160;2023-01-09T17:24:35;4.10;;;2.05;;
24206;SDS011;12351;52.284;9.160;2023-01-09T17:30:15;2.92;;;1.02;;
24206;SDS011;12351;52.284;9.160;2023-01-09T17:33:04;4.17;;;1.50;;
24206;SDS011;12351;52.284;9.160;2023-01-09T17:35:52;2.20;;;1.22;;
24206;SDS011;12351;52.284;9.160;2023-01-09T17:38:41;3.60;;;2.00;;
24206;SDS011;12351;52.284;9.160;2023-01-09T17:41:30;5.00;;;2.58;;
24206;SDS011;12351;52.284;9.160;2023-01-09T17:44:19;4.15;;;2.40;;
24206;SDS011;12351;52.284;9.160;2023-01-09T17:47:13;4.10;;;2.00;;
24206;SDS011;12351;52.284;9.160;2023-01-09T17:50:09;5.50;;;2.83;;
24206;SDS011;12351;52.284;9.160;2023-01-09T17:55:47;5.85;;;3.00;;
24206;SDS011;12351;52.284;9.160;2023-01-09T17:58:34;4.83;;;2.72;;
24206;SDS011;12351;52.284;9.160;2023-01-09T18:01:23;5.03;;;2.83;;
24206;SDS011;12351;52.284;9.160;2023-01-09T18:04:10;5.12;;;2.95;;
24206;SDS011;12351;52.284;9.160;2023-01-09T18:06:58;5.42;;;3.22;;
24206;SDS011;12351;52.284;9.160;2023-01-09T18:09:46;6.95;;;4.03;;
24206;SDS011;12351;52.284;9.160;2023-01-09T18:12:34;7.83;;;4.37;;
24206;SDS011;12351;52.284;9.160;2023-01-09T18:15:24;7.65;;;4.80;;
24206;SDS011;12351;52.284;9.160;2023-01-09T18:18:12;6.87;;;4.70;;
24206;SDS011;12351;52.284;9.160;2023-01-09T18:21:03;8.05;;;5.22;;
24206;SDS011;12351;52.284;9.160;2023-01-09T18:23:51;7.35;;;5.35;;
24206;SDS011;12351;52.284;9.160;2023-01-09T18:26:42;12.15;;;5.62;;
24206;SDS011;12351;52.284;9.160;2023-01-09T18:29:29;8.00;;;5.53;;
24206;SDS011;12351;52.284;9.160;2023-01-09T18:32:18;11.22;;;5.50;;
24206;SDS011;12351;52.284;9.160;2023-01-09T18:35:04;9.60;;;6.17;;
24206;SDS011;12351;52.284;9.160;2023-01-09T18:37:53;10.68;;;6.17;;
24206;SDS011;12351;52.284;9.160;2023-01-09T18:40:41;13.05;;;6.60;;
24206;SDS011;12351;52.284;9.160;2023-01-09T18:43:30;12.05;;;6.40;;
24206;SDS011;12351;52.284;9.160;2023-01-09T18:46:17;9.78;;;7.00;;
24206;SDS011;12351;52.284;9.160;2023-01-09T18:49:07;14.20;;;6.92;;
24206;SDS011;12351;52.284;9.160;2023-01-09T18:51:56;12.53;;;7.30;;
24206;SDS011;12351;52.284;9.160;2023-01-09T18:54:49;12.78;;;7.28;;
24206;SDS011;12351;52.284;9.160;2023-01-09T18:57:39;16.15;;;7.95;;
24206;SDS011;12351;52.284;9.160;2023-01-09T19:00:27;15.08;;;7.83;;
24206;SDS011;12351;52.284;9.160;2023-01-09T19:03:15;12.43;;;7.65;;
24206;SDS011;12351;52.284;9.160;2023-01-09T19:06:03;12.63;;;7.17;;
24206;SDS011;12351;52.284;9.160;2023-01-09T19:08:51;16.62;;;8.00;;
24206;SDS011;12351;52.284;9.160;2023-01-09T19:11:40;16.93;;;7.25;;
24206;SDS011;12351;52.284;9.160;2023-01-09T19:14:28;15.53;;;8.20;;
24206;SDS011;12351;52.284;9.160;2023-01-09T19:17:16;15.25;;;7.85;;
24206;SDS011;12351;52.284;9.160;2023-01-09T19:20:05;13.83;;;8.08;;
24206;SDS011;12351;52.284;9.160;2023-01-09T19:22:57;13.13;;;7.35;;
24206;SDS011;12351;52.284;9.160;2023-01-09T19:25:48;14.28;;;7.30;;
24206;SDS011;12351;52.284;9.160;2023-01-09T19:28:37;11.73;;;7.33;;
24206;SDS011;12351;52.284;9.160;2023-01-09T19:31:27;11.48;;;6.42;;
24206;SDS011;12351;52.284;9.160;2023-01-09T19:34:15;14.45;;;6.58;;
24206;SDS011;12351;52.284;9.160;2023-01-09T19:37:05;10.28;;;6.47;;
24206;SDS011;12351;52.284;9.160;2023-01-09T19:39:54;10.75;;;5.80;;
24206;SDS011;12351;52.284;9.160;2023-01-09T19:42:41;8.83;;;5.10;;
24206;SDS011;12351;52.284;9.160;2023-01-09T19:45:29;10.98;;;5.80;;
24206;SDS011;12351;52.284;9.160;2023-01-09T19:48:17;12.05;;;5.12;;
24206;SDS011;12351;52.284;9.160;2023-01-09T19:51:05;11.45;;;5.47;;
24206;SDS011;12351;52.284;9.160;2023-01-09T19:53:55;9.50;;;5.42;;
24206;SDS011;12351;52.284;9.160;2023-01-09T19:56:45;9.15;;;5.50;;
24206;SDS011;12351;52.284;9.160;2023-01-09T19:59:33;8.00;;;4.70;;
24206;SDS011;12351;52.284;9.160;2023-01-09T20:02:23;8.68;;;4.92;;
24206;SDS011;12351;52.284;9.160;2023-01-09T20:05:11;9.58;;;4.50;;
24206;SDS011;12351;52.284;9.160;2023-01-09T20:07:59;9.93;;;4.75;;
24206;SDS011;12351;52.284;9.160;2023-01-09T20:10:51;6.83;;;4.08;;
24206;SDS011;12351;52.284;9.160;2023-01-09T20:13:40;10.58;;;4.95;;
24206;SDS011;12351;52.284;9.160;2023-01-09T20:16:29;13.10;;;5.20;;
24206;SDS011;12351;52.284;9.160;2023-01-09T20:19:22;10.78;;;5.67;;